Terminal Aerodrome Forecast
Issued by NWS

Home | Current Version | Previous Version | Text Only | Print | Product List | Glossary On
Versions: 1 2 3 4 5 6 7 8 9 10 11 12
918
FTUS42 TJSJ 232320
TAFJSJ
TAF
TJSJ 232320Z 2400/2424 05006KT P6SM SCT025 SCT060
     FM240400 13003KT P6SM VCSH SCT025 SCT040
     FM241400 07009KT P6SM SCT030 SCT060
     FM241930 08011KT P6SM VCSH SCT025 BKN050
     FM242330 10006KT P6SM FEW030 SCT060=

USA.gov is the U.S. government's official web portal to all federal, state and local government web resources and services.